Terminal Aerodrome Forecast
Issued by NWS Grand Forks, ND

Home | Current Version | Previous Version | Text Only | Print | Product List | Glossary On
Versions: 1 2 3 4 5 6 7 8 9 10 11 12 13 14 15 16
000
FTUS43 KFGF 251137
TAFFAR
TAF
KFAR 251137Z 2512/2612 11011KT P6SM BKN130
     FM251600 12010KT P6SM -SHRA OVC090
     FM251900 13010KT P6SM -SHRA OVC050
      TEMPO 2519/2520 TS OVC030CB
     FM252200 15010KT P6SM -SHRA BKN050
      TEMPO 2522/2523 TS BKN040CB
     FM260200 09008KT P6SM -SHRA BKN090
     FM260400 07008KT P6SM VCSH BKN150=

USA.gov is the U.S. government's official web portal to all federal, state and local government web resources and services.